Terminal Aerodrome Forecast
Issued by NWS

Home | Current Version | Previous Version | Text Only | Print | Product List | Glossary On
Versions: 1 2 3 4 5 6 7 8 9 10 11 12 13 14 15 16 17 18
000
FTUS45 KGJT 240730 AAA
TAFDRO
TAF AMD
KDRO 240730Z 2408/2506 33008KT P6SM SKC
     FM241200 02003KT P6SM SKC
     FM241900 25012G20KT P6SM SCT200
     FM250100 26009KT P6SM SKC=

USA.gov is the U.S. government's official web portal to all federal, state and local government web resources and services.